Time;durP1;ratioP1;P1;durP2;ratioP2;P2;SDS_P1;SDS_P2;PMS_P1;PMS_P2;Temp;Humidity;BMP_temperature;BMP_pressure;BME280_temperature;BME280_humidity;BME280_pressure;Samples;Min_cycle;Max_cycle;Signal;HPM_P1;HPM_P2
2023/05/13 00:01:26;;;;;;;;;17.33;10.00;;;;;-143.57;100.00;65101.44;5119022;27;46092;-43
2023/05/13 00:03:51;;;;;;;;;13.67;11.33;;;;;-143.57;100.00;65101.44;5119277;27;45394;-42
2023/05/13 00:06:17;;;;;;;;;15.00;14.00;;;;;-143.57;100.00;65101.44;5119068;27;45165;-41
2023/05/13 00:08:42;;;;;;;;;14.00;14.00;;;;;-143.57;100.00;65101.44;5119331;27;45273;-42
2023/05/13 00:11:07;;;;;;;;;12.67;12.33;;;;;-143.57;100.00;65101.44;5119096;27;46207;-42
2023/05/13 00:13:33;;;;;;;;;16.33;14.33;;;;;-143.57;100.00;65101.44;5118851;27;45256;-42
2023/05/13 00:15:58;;;;;;;;;11.67;11.67;;;;;-143.57;100.00;65101.44;5119055;27;45395;-42
2023/05/13 00:18:24;;;;;;;;;21.67;14.00;;;;;-143.57;100.00;65101.44;5119185;27;45411;-41
2023/05/13 00:20:50;;;;;;;;;16.00;13.00;;;;;-143.57;100.00;65101.44;5118806;27;45423;-42
2023/05/13 00:23:15;;;;;;;;;14.67;11.33;;;;;-143.57;100.00;65101.44;5118621;27;45288;-43
2023/05/13 00:25:42;;;;;;;;;15.33;12.00;;;;;-143.57;100.00;65101.44;5100291;27;45346;-41
2023/05/13 00:28:08;;;;;;;;;16.33;15.67;;;;;-143.57;100.00;65101.44;5118872;27;45372;-42
2023/05/13 00:30:33;;;;;;;;;10.67;9.33;;;;;-143.57;100.00;65101.44;5118256;27;46040;-47
2023/05/13 00:32:59;;;;;;;;;13.33;12.00;;;;;-143.57;100.00;65101.44;5118679;27;45207;-43
2023/05/13 00:35:24;;;;;;;;;15.33;11.33;;;;;-143.57;100.00;65101.44;5117564;27;45333;-43
2023/05/13 00:37:49;;;;;;;;;12.67;11.00;;;;;-143.57;100.00;65101.44;5118969;27;45205;-41
2023/05/13 00:40:23;;;;;;;;;12.33;10.00;;;;;-143.57;100.00;65101.44;5118371;27;47037;-41
2023/05/13 00:42:49;;;;;;;;;13.00;9.00;;;;;-143.57;100.00;65101.44;5118525;27;45443;-41
2023/05/13 00:45:15;;;;;;;;;13.00;8.67;;;;;-143.57;100.00;65101.44;5118345;27;45322;-41
2023/05/13 00:47:41;;;;;;;;;16.00;12.33;;;;;-143.57;100.00;65101.44;5118401;27;45505;-41
2023/05/13 00:50:09;;;;;;;;;15.00;12.67;;;;;-143.57;100.00;65101.44;5118149;27;46200;-41
2023/05/13 00:52:36;;;;;;;;;13.33;12.67;;;;;-143.57;100.00;65101.44;5118148;27;45418;-41
2023/05/13 00:55:02;;;;;;;;;10.00;8.00;;;;;-143.57;100.00;65101.44;5118202;27;45307;-41
2023/05/13 00:57:29;;;;;;;;;15.00;11.00;;;;;-143.57;100.00;65101.44;5118454;27;45291;-41
2023/05/13 00:59:54;;;;;;;;;14.33;12.67;;;;;-143.57;100.00;65101.44;5117961;27;47173;-41
2023/05/13 01:02:31;;;;;;;;;10.33;9.33;;;;;-143.57;100.00;65101.44;5118046;27;45340;-40
2023/05/13 01:05:19;;;;;;;;;14.00;11.00;;;;;-143.57;100.00;65101.44;5118316;27;45499;-41
2023/05/13 01:07:58;;;;;;;;;14.00;11.00;;;;;-143.57;100.00;65101.44;5118054;27;45381;-42
2023/05/13 01:10:59;;;;;;;;;14.33;12.67;;;;;-143.57;100.00;65101.44;5117944;27;46485;-40
2023/05/13 01:13:30;;;;;;;;;14.33;11.00;;;;;-143.57;100.00;65101.44;5112863;27;45398;-41
2023/05/13 01:16:19;;;;;;;;;11.33;10.00;;;;;-143.57;100.00;65101.44;5118329;27;45342;-42
2023/05/13 01:19:04;;;;;;;;;15.00;12.33;;;;;-143.57;100.00;65101.44;5118197;27;45368;-42
2023/05/13 01:21:34;;;;;;;;;11.67;10.00;;;;;-143.57;100.00;65101.44;5117719;27;46278;-41
2023/05/13 01:24:00;;;;;;;;;14.00;10.67;;;;;-143.57;100.00;65101.44;5116663;27;45419;-41
2023/05/13 01:26:25;;;;;;;;;18.00;12.33;;;;;-143.57;100.00;65101.44;5117759;27;45243;-40
2023/05/13 01:28:51;;;;;;;;;15.00;11.33;;;;;-143.57;100.00;65101.44;5118166;27;45320;-41
2023/05/13 01:31:18;;;;;;;;;12.00;12.00;;;;;-143.57;100.00;65101.44;5117409;27;46323;-41
2023/05/13 01:33:43;;;;;;;;;16.33;12.00;;;;;-143.57;100.00;65101.44;5117395;27;45321;-41
2023/05/13 01:36:09;;;;;;;;;14.67;12.67;;;;;-143.57;100.00;65101.44;5117174;27;45420;-42
2023/05/13 01:38:36;;;;;;;;;12.33;12.33;;;;;-143.57;100.00;65101.44;5117806;27;45420;-41
2023/05/13 01:41:01;;;;;;;;;9.00;8.67;;;;;-143.57;100.00;65101.44;5117522;27;46544;-41
2023/05/13 01:43:27;;;;;;;;;13.67;11.67;;;;;-143.57;100.00;65101.44;5117145;27;45442;-41
2023/05/13 01:45:52;;;;;;;;;16.67;14.00;;;;;-143.57;100.00;65101.44;5117185;27;45496;-40
2023/05/13 01:48:18;;;;;;;;;15.67;10.00;;;;;-143.57;100.00;65101.44;5117714;27;45646;-41
2023/05/13 01:50:44;;;;;;;;;12.00;11.33;;;;;-143.57;100.00;65101.44;5117296;27;47043;-40
2023/05/13 01:53:09;;;;;;;;;14.00;11.67;;;;;-143.57;100.00;65101.44;5117351;27;45223;-41
2023/05/13 01:55:34;;;;;;;;;15.00;9.67;;;;;-143.57;100.00;65101.44;5117408;27;45382;-41
2023/05/13 01:58:00;;;;;;;;;16.00;13.00;;;;;-143.57;100.00;65101.44;5117108;27;45595;-41
2023/05/13 02:00:25;;;;;;;;;16.33;12.33;;;;;-143.57;100.00;65101.44;5117043;27;46113;-42
2023/05/13 02:02:50;;;;;;;;;16.00;13.33;;;;;-143.57;100.00;65101.44;5117399;27;45302;-40
2023/05/13 02:05:16;;;;;;;;;13.67;13.00;;;;;-143.57;100.00;65101.44;5117394;27;45332;-41
2023/05/13 02:07:41;;;;;;;;;18.67;14.00;;;;;-143.57;100.00;65101.44;5117466;27;45384;-40
2023/05/13 02:10:07;;;;;;;;;16.33;12.00;;;;;-143.57;100.00;65101.44;5117038;27;46016;-41
2023/05/13 02:12:32;;;;;;;;;15.67;12.33;;;;;-143.57;100.00;65101.44;5116973;27;45426;-44
2023/05/13 02:14:58;;;;;;;;;14.67;13.00;;;;;-143.57;100.00;65101.44;5117081;27;45380;-40
2023/05/13 02:17:23;;;;;;;;;16.67;12.00;;;;;-143.57;100.00;65101.44;5117426;27;45311;-40
2023/05/13 02:19:48;;;;;;;;;12.00;9.33;;;;;-143.57;100.00;65101.44;5116992;27;45230;-41
2023/05/13 02:22:14;;;;;;;;;15.33;13.67;;;;;-143.57;100.00;65101.44;5116848;27;45420;-41
2023/05/13 02:24:40;;;;;;;;;17.33;15.33;;;;;-143.57;100.00;65101.44;5117013;27;45799;-41
2023/05/13 02:27:06;;;;;;;;;16.67;14.33;;;;;-143.57;100.00;65101.44;5116903;27;45420;-41
2023/05/13 02:29:32;;;;;;;;;12.67;11.00;;;;;-143.57;100.00;65101.44;5116708;27;47020;-41
2023/05/13 02:31:57;;;;;;;;;14.67;13.67;;;;;-143.57;100.00;65101.44;5116620;27;45391;-40
2023/05/13 02:34:23;;;;;;;;;20.00;16.00;;;;;-143.57;100.00;65101.44;5116668;27;45330;-41
2023/05/13 02:36:48;;;;;;;;;16.67;14.33;;;;;-143.57;100.00;65101.44;5117051;27;45223;-41
2023/05/13 02:39:13;;;;;;;;;19.00;15.67;;;;;-143.57;100.00;65101.44;5116573;27;46167;-41
2023/05/13 02:41:39;;;;;;;;;21.67;15.67;;;;;-143.57;100.00;65101.44;5116732;27;45222;-41
2023/05/13 02:44:04;;;;;;;;;18.00;15.00;;;;;-143.57;100.00;65101.44;5116667;27;45273;-41
2023/05/13 02:46:30;;;;;;;;;21.67;16.67;;;;;-143.57;100.00;65101.44;5098393;27;45497;-41
2023/05/13 02:48:55;;;;;;;;;21.67;18.33;;;;;-143.57;100.00;65101.44;5116245;27;46143;-41
2023/05/13 02:51:20;;;;;;;;;19.00;13.00;;;;;-143.57;100.00;65101.44;5116468;27;45242;-41
2023/05/13 02:53:46;;;;;;;;;23.67;17.33;;;;;-143.57;100.00;65101.44;5116739;27;45286;-41
2023/05/13 02:56:15;;;;;;;;;20.67;16.33;;;;;-143.57;100.00;65101.44;5116680;27;45271;-40
2023/05/13 02:58:40;;;;;;;;;23.00;20.33;;;;;-143.57;100.00;65101.44;5118982;27;46201;-41
2023/05/13 03:01:05;;;;;;;;;20.00;16.00;;;;;-143.57;100.00;65101.44;5119400;27;45405;-41
2023/05/13 03:03:31;;;;;;;;;25.00;20.00;;;;;-143.57;100.00;65101.44;5120042;27;45314;-42
2023/05/13 03:05:56;;;;;;;;;22.00;15.67;;;;;-143.57;100.00;65101.44;5120254;27;45402;-41
2023/05/13 03:08:21;;;;;;;;;21.00;16.67;;;;;-143.57;100.00;65101.44;5119896;27;45392;-40
2023/05/13 03:10:47;;;;;;;;;23.67;18.33;;;;;-143.57;100.00;65101.44;5119316;27;45434;-42
2023/05/13 03:13:12;;;;;;;;;23.67;20.00;;;;;-143.57;100.00;65101.44;5119821;27;45390;-41
2023/05/13 03:15:37;;;;;;;;;23.33;19.67;;;;;-143.57;100.00;65101.44;5119757;27;45412;-41
2023/05/13 03:18:03;;;;;;;;;21.67;18.67;;;;;-143.57;100.00;65101.44;5119570;27;47258;-40
2023/05/13 03:20:29;;;;;;;;;23.33;19.00;;;;;-143.57;100.00;65101.44;5119760;27;45403;-41
2023/05/13 03:22:54;;;;;;;;;21.67;19.67;;;;;-143.57;100.00;65101.44;5119790;27;45429;-41
2023/05/13 03:25:19;;;;;;;;;23.33;20.00;;;;;-143.57;100.00;65101.44;5119751;27;45238;-41
2023/05/13 03:27:45;;;;;;;;;24.00;19.00;;;;;-143.57;100.00;65101.44;5119293;27;46235;-41
2023/05/13 03:30:10;;;;;;;;;20.33;17.33;;;;;-143.57;100.00;65101.44;5119350;27;45382;-41
2023/05/13 03:32:36;;;;;;;;;24.00;21.33;;;;;-143.57;100.00;65101.44;5119329;27;45597;-42
2023/05/13 03:35:01;;;;;;;;;24.33;20.33;;;;;-143.57;100.00;65101.44;5118359;27;45475;-41
2023/05/13 03:37:27;;;;;;;;;33.67;25.33;;;;;-143.57;100.00;65101.44;5119188;27;46217;-41
2023/05/13 03:39:52;;;;;;;;;26.33;22.33;;;;;-143.57;100.00;65101.44;5119497;27;45278;-43
2023/05/13 03:42:19;;;;;;;;;28.67;24.33;;;;;-143.57;100.00;65101.44;5119583;27;45485;-41
2023/05/13 03:44:44;;;;;;;;;33.00;26.00;;;;;-143.57;100.00;65101.44;5119365;27;45485;-41
2023/05/13 03:47:09;;;;;;;;;32.33;26.33;;;;;-143.57;100.00;65101.44;5118945;27;46490;-41
2023/05/13 03:49:35;;;;;;;;;35.67;27.33;;;;;-143.57;100.00;65101.44;5119048;27;46439;-41
2023/05/13 03:52:00;;;;;;;;;31.00;28.00;;;;;-143.57;100.00;65101.44;5119078;27;45412;-41
2023/05/13 03:54:25;;;;;;;;;37.67;31.33;;;;;-143.57;100.00;65101.44;5119426;27;45461;-41
2023/05/13 03:56:51;;;;;;;;;51.00;35.00;;;;;-143.57;100.00;65101.44;5118972;27;46085;-41
2023/05/13 03:59:16;;;;;;;;;41.00;36.67;;;;;-143.57;100.00;65101.44;5119213;27;45414;-41
2023/05/13 04:01:41;;;;;;;;;55.00;35.67;;;;;-143.57;100.00;65101.44;5118992;27;45389;-41
2023/05/13 04:04:07;;;;;;;;;54.00;38.00;;;;;-143.57;100.00;65101.44;5119116;27;45312;-42
2023/05/13 04:06:32;;;;;;;;;54.00;38.67;;;;;-143.57;100.00;65101.44;5100494;27;45425;-41
2023/05/13 04:08:58;;;;;;;;;50.33;39.67;;;;;-143.57;100.00;65101.44;5118628;27;45481;-40
2023/05/13 04:11:24;;;;;;;;;57.33;41.00;;;;;-143.57;100.00;65101.44;5119240;27;45267;-41
2023/05/13 04:13:49;;;;;;;;;55.67;41.33;;;;;-143.57;100.00;65101.44;5118836;27;45409;-41
2023/05/13 04:16:14;;;;;;;;;59.50;44.25;;;;;-143.57;100.00;65101.44;5118679;27;46201;-41
2023/05/13 04:18:40;;;;;;;;;54.25;43.00;;;;;-143.57;100.00;65101.44;5118603;27;45409;-40
2023/05/13 04:21:09;;;;;;;;;54.33;38.00;;;;;-143.57;100.00;65101.44;5118725;27;45409;-40
2023/05/13 04:23:34;;;;;;;;;58.00;45.67;;;;;-143.57;100.00;65101.44;5118933;27;45418;-40
2023/05/13 04:26:00;;;;;;;;;61.50;45.00;;;;;-143.57;100.00;65101.44;5118120;27;48146;-42
2023/05/13 04:28:25;;;;;;;;;62.50;43.50;;;;;-143.57;100.00;65101.44;5118587;27;45275;-41
2023/05/13 04:30:51;;;;;;;;;57.75;42.25;;;;;-143.57;100.00;65101.44;5118514;27;45404;-41
2023/05/13 04:33:16;;;;;;;;;53.50;45.00;;;;;-143.57;100.00;65101.44;5099810;27;45389;-40
2023/05/13 04:35:42;;;;;;;;;57.50;44.75;;;;;-143.57;100.00;65101.44;5118381;27;45908;-40
2023/05/13 04:38:08;;;;;;;;;60.50;46.00;;;;;-143.57;100.00;65101.44;5118465;27;45318;-41
2023/05/13 04:40:33;;;;;;;;;61.25;45.50;;;;;-143.57;100.00;65101.44;5116950;27;45412;-41
2023/05/13 04:42:58;;;;;;;;;62.00;45.00;;;;;-143.57;100.00;65101.44;5118227;27;45371;-41
2023/05/13 04:45:24;;;;;;;;;55.75;44.75;;;;;-143.57;100.00;65101.44;5118377;27;46065;-41
2023/05/13 04:47:49;;;;;;;;;58.25;44.25;;;;;-143.57;100.00;65101.44;5118039;27;45300;-41
2023/05/13 04:50:15;;;;;;;;;62.00;44.50;;;;;-143.57;100.00;65101.44;5118256;27;45309;-41
2023/05/13 04:52:41;;;;;;;;;60.33;44.00;;;;;-143.57;100.00;65101.44;5118274;27;45234;-41
2023/05/13 04:55:08;;;;;;;;;57.75;46.25;;;;;-143.57;100.00;65101.44;5118054;27;46357;-40
2023/05/13 04:57:34;;;;;;;;;65.25;45.75;;;;;-143.57;100.00;65101.44;5117728;27;45347;-41
2023/05/13 05:00:00;;;;;;;;;60.75;46.00;;;;;-143.57;100.00;65101.44;5117868;27;45303;-41
2023/05/13 05:02:25;;;;;;;;;57.00;43.00;;;;;-143.57;100.00;65101.44;5118230;27;45482;-41
2023/05/13 05:04:51;;;;;;;;;59.00;43.25;;;;;-143.57;100.00;65101.44;5117730;27;46196;-41
2023/05/13 05:07:16;;;;;;;;;59.50;45.75;;;;;-143.57;100.00;65101.44;5117753;27;45392;-41
2023/05/13 05:09:41;;;;;;;;;62.75;45.25;;;;;-143.57;100.00;65101.44;5117900;27;45378;-41
2023/05/13 05:12:07;;;;;;;;;60.25;47.75;;;;;-143.57;100.00;65101.44;5118195;27;45401;-41
2023/05/13 05:14:32;;;;;;;;;62.25;47.75;;;;;-143.57;100.00;65101.44;5117676;27;45525;-40
2023/05/13 05:16:57;;;;;;;;;56.00;42.50;;;;;-143.57;100.00;65101.44;5117357;27;45304;-42
2023/05/13 05:19:23;;;;;;;;;63.50;48.25;;;;;-143.57;100.00;65101.44;5117952;27;45433;-41
2023/05/13 05:21:51;;;;;;;;;61.25;45.50;;;;;-143.57;100.00;65101.44;5117106;27;45462;-40
2023/05/13 05:24:17;;;;;;;;;61.25;46.75;;;;;-143.57;100.00;65101.44;5117787;27;46074;-42
2023/05/13 05:26:42;;;;;;;;;59.50;46.75;;;;;-143.57;100.00;65101.44;5117467;27;45323;-42
2023/05/13 05:29:08;;;;;;;;;66.00;47.25;;;;;-143.57;100.00;65101.44;5117257;27;45400;-41
2023/05/13 05:31:33;;;;;;;;;65.75;44.50;;;;;-143.57;100.00;65101.44;5117639;27;45285;-41
2023/05/13 05:34:00;;;;;;;;;62.25;48.25;;;;;-143.57;100.00;65101.44;5117009;27;46302;-41
2023/05/13 05:36:26;;;;;;;;;64.75;48.25;;;;;-143.57;100.00;65101.44;5117470;27;45365;-41
2023/05/13 05:38:51;;;;;;;;;59.75;45.75;;;;;-143.57;100.00;65101.44;5117497;27;45326;-42
2023/05/13 05:41:16;;;;;;;;;61.75;47.50;;;;;-143.57;100.00;65101.44;5117818;27;45415;-42
2023/05/13 05:43:42;;;;;;;;;63.50;46.75;;;;;-143.57;100.00;65101.44;5117389;27;45555;-41
2023/05/13 05:46:08;;;;;;;;;66.00;48.00;;;;;-143.57;100.00;65101.44;5117229;27;45326;-41
2023/05/13 05:48:33;;;;;;;;;59.50;45.00;;;;;-143.57;100.00;65101.44;5117009;27;45456;-43
2023/05/13 05:50:58;;;;;;;;;62.75;43.50;;;;;-143.57;100.00;65101.44;5117450;27;45315;-41
2023/05/13 05:53:24;;;;;;;;;58.00;45.50;;;;;-143.57;100.00;65101.44;5117095;27;46099;-42
2023/05/13 05:55:49;;;;;;;;;61.50;48.00;;;;;-143.57;100.00;65101.44;5117188;27;45487;-41
2023/05/13 05:58:15;;;;;;;;;63.75;47.25;;;;;-143.57;100.00;65101.44;5117284;27;45489;-41
2023/05/13 06:00:41;;;;;;;;;58.25;47.00;;;;;-143.57;100.00;65101.44;5117461;27;45222;-44
2023/05/13 06:03:06;;;;;;;;;62.25;45.00;;;;;-143.57;100.00;65101.44;5116832;27;45338;-43
2023/05/13 06:05:32;;;;;;;;;63.00;48.50;;;;;-143.57;100.00;65101.44;5117004;27;45335;-42
2023/05/13 06:07:57;;;;;;;;;75.75;56.25;;;;;-143.57;100.00;65101.44;5116869;27;45358;-42
2023/05/13 06:10:22;;;;;;;;;62.75;45.50;;;;;-143.57;100.00;65101.44;5116850;27;45538;-42
2023/05/13 06:12:49;;;;;;;;;59.33;45.67;;;;;-143.57;100.00;65101.44;5116999;27;45830;-41
2023/05/13 06:15:15;;;;;;;;;62.00;49.00;;;;;-143.57;100.00;65101.44;5116995;27;45523;-41
2023/05/13 06:17:40;;;;;;;;;61.50;46.00;;;;;-143.57;100.00;65101.44;5116803;27;45239;-41
2023/05/13 06:20:06;;;;;;;;;57.50;44.50;;;;;-143.57;100.00;65101.44;5117530;27;45693;-41
2023/05/13 06:22:31;;;;;;;;;59.25;45.25;;;;;-143.57;100.00;65101.44;5116617;27;46122;-42
2023/05/13 06:24:57;;;;;;;;;67.00;47.00;;;;;-143.57;100.00;65101.44;5116837;27;45408;-42
2023/05/13 06:27:22;;;;;;;;;60.25;45.50;;;;;-143.57;100.00;65101.44;5116822;27;45387;-44
2023/05/13 06:29:47;;;;;;;;;63.33;45.00;;;;;-143.57;100.00;65101.44;5116891;27;45363;-44
2023/05/13 06:32:13;;;;;;;;;60.33;45.00;;;;;-143.57;100.00;65101.44;5116977;27;46545;-44
2023/05/13 06:34:41;;;;;;;;;57.33;45.67;;;;;-143.57;100.00;65101.44;5120051;27;45337;-42
2023/05/13 06:37:06;;;;;;;;;56.75;44.25;;;;;-143.57;100.00;65101.44;5120375;27;45364;-43
2023/05/13 06:39:31;;;;;;;;;45.00;39.00;;;;;-143.57;100.00;65101.44;5120698;27;45161;-43
2023/05/13 06:41:57;;;;;;;;;53.67;41.33;;;;;-143.57;100.00;65101.44;5120426;27;46318;-42
2023/05/13 06:44:22;;;;;;;;;52.33;41.00;;;;;-143.57;100.00;65101.44;5120445;27;45393;-41
2023/05/13 06:46:48;;;;;;;;;53.00;41.00;;;;;-143.57;100.00;65101.44;5120460;27;45401;-45
2023/05/13 06:49:13;;;;;;;;;56.33;44.33;;;;;-143.57;100.00;65101.44;5120325;27;45400;-42
2023/05/13 06:51:38;;;;;;;;;56.67;44.67;;;;;-143.57;100.00;65101.44;5120143;27;46026;-41
2023/05/13 06:54:04;;;;;;;;;52.67;40.67;;;;;-143.57;100.00;65101.44;5119959;27;45415;-42
2023/05/13 06:56:29;;;;;;;;;54.33;42.00;;;;;-143.57;100.00;65101.44;5120281;27;45465;-41
2023/05/13 06:58:55;;;;;;;;;53.00;42.33;;;;;-143.57;100.00;65101.44;5120364;27;45447;-41
2023/05/13 07:01:20;;;;;;;;;49.33;40.33;;;;;-143.57;100.00;65101.44;5119999;27;46291;-42
2023/05/13 07:03:45;;;;;;;;;55.67;42.00;;;;;-143.57;100.00;65101.44;5119990;27;45485;-42
2023/05/13 07:06:11;;;;;;;;;53.67;40.00;;;;;-143.57;100.00;65101.44;5120244;27;45786;-44
2023/05/13 07:08:37;;;;;;;;;45.33;39.33;;;;;-143.57;100.00;65101.44;5120020;27;45711;-42
2023/05/13 07:11:02;;;;;;;;;53.67;39.33;;;;;-143.57;100.00;65101.44;5119495;27;45389;-41
2023/05/13 07:13:28;;;;;;;;;47.67;38.33;;;;;-143.57;100.00;65101.44;5120060;27;45346;-41
2023/05/13 07:15:54;;;;;;;;;46.33;38.00;;;;;-143.57;100.00;65101.44;5119162;27;45390;-45
2023/05/13 07:18:19;;;;;;;;;46.67;38.00;;;;;-143.57;100.00;65101.44;5118940;27;45507;-42
2023/05/13 07:20:45;;;;;;;;;43.33;35.33;;;;;-143.57;100.00;65101.44;5119668;27;46003;-43
2023/05/13 07:23:10;;;;;;;;;48.33;34.00;;;;;-143.57;100.00;65101.44;5119560;27;45313;-44
2023/05/13 07:25:36;;;;;;;;;43.67;37.00;;;;;-143.57;100.00;65101.44;5119692;27;45313;-44
2023/05/13 07:28:01;;;;;;;;;39.33;33.33;;;;;-143.57;100.00;65101.44;5119919;27;45401;-47
2023/05/13 07:30:27;;;;;;;;;44.67;38.00;;;;;-143.57;100.00;65101.44;5119151;27;47091;-41
2023/05/13 07:32:52;;;;;;;;;38.00;32.00;;;;;-143.57;100.00;65101.44;5119247;27;45393;-42
2023/05/13 07:35:17;;;;;;;;;47.33;39.33;;;;;-143.57;100.00;65101.44;5119443;27;45414;-44
2023/05/13 07:37:44;;;;;;;;;47.00;37.67;;;;;-143.57;100.00;65101.44;5119778;27;45661;-44
2023/05/13 07:40:09;;;;;;;;;41.00;34.75;;;;;-143.57;100.00;65101.44;5119301;27;46363;-44
2023/05/13 07:42:35;;;;;;;;;44.67;36.33;;;;;-143.57;100.00;65101.44;5119240;27;45370;-43
2023/05/13 07:45:01;;;;;;;;;48.00;39.00;;;;;-143.57;100.00;65101.44;5118857;27;45529;-44
2023/05/13 07:47:27;;;;;;;;;44.33;36.00;;;;;-143.57;100.00;65101.44;5119393;27;45405;-42
2023/05/13 07:49:53;;;;;;;;;45.67;37.67;;;;;-143.57;100.00;65101.44;5119192;27;46446;-42
2023/05/13 07:52:18;;;;;;;;;40.67;32.67;;;;;-143.57;100.00;65101.44;5118858;27;45408;-43
2023/05/13 07:54:44;;;;;;;;;46.33;36.00;;;;;-143.57;100.00;65101.44;5118998;27;45404;-42
2023/05/13 07:57:09;;;;;;;;;48.00;37.33;;;;;-143.57;100.00;65101.44;5119451;27;45322;-43
2023/05/13 07:59:34;;;;;;;;;48.00;38.67;;;;;-143.57;100.00;65101.44;5118952;27;46111;-41
2023/05/13 08:02:00;;;;;;;;;49.33;38.00;;;;;-143.57;100.00;65101.44;5117505;27;46052;-43
2023/05/13 08:04:25;;;;;;;;;52.00;41.00;;;;;-143.57;100.00;65101.44;5119035;27;45412;-44
2023/05/13 08:06:50;;;;;;;;;51.67;41.33;;;;;-143.57;100.00;65101.44;5119505;27;45390;-42
2023/05/13 08:09:16;;;;;;;;;55.33;41.67;;;;;-143.57;100.00;65101.44;5118629;27;47900;-44
2023/05/13 08:11:41;;;;;;;;;53.33;40.67;;;;;-143.57;100.00;65101.44;5118801;27;45273;-42
2023/05/13 08:14:07;;;;;;;;;51.67;41.00;;;;;-143.57;100.00;65101.44;5118992;27;45952;-42
2023/05/13 08:16:35;;;;;;;;;58.33;45.67;;;;;-143.57;100.00;65101.44;5118979;27;45352;-42
2023/05/13 08:19:01;;;;;;;;;57.00;43.00;;;;;-143.57;100.00;65101.44;5118631;27;46020;-43
2023/05/13 08:21:27;;;;;;;;;56.00;44.00;;;;;-143.57;100.00;65101.44;5118534;27;45372;-42
2023/05/13 08:23:52;;;;;;;;;60.67;46.33;;;;;-143.57;100.00;65101.44;5118883;27;45357;-42
2023/05/13 08:26:17;;;;;;;;;55.67;43.00;;;;;-143.57;100.00;65101.44;5118807;27;45318;-41
2023/05/13 08:28:43;;;;;;;;;57.33;44.00;;;;;-143.57;100.00;65101.44;5118206;27;47218;-44
2023/05/13 08:31:12;;;;;;;;;59.33;43.67;;;;;-143.57;100.00;65101.44;5118354;27;45437;-42
2023/05/13 08:33:38;;;;;;;;;60.33;48.33;;;;;-143.57;100.00;65101.44;5118414;27;45350;-42
2023/05/13 08:36:04;;;;;;;;;67.00;46.67;;;;;-143.57;100.00;65101.44;5118456;27;45572;-42
2023/05/13 08:38:31;;;;;;;;;57.67;45.67;;;;;-143.57;100.00;65101.44;5118083;27;46256;-42
2023/05/13 08:40:57;;;;;;;;;56.00;43.67;;;;;-143.57;100.00;65101.44;5118475;27;45374;-42
2023/05/13 08:43:23;;;;;;;;;67.33;49.00;;;;;-143.57;100.00;65101.44;5117611;27;45359;-43
2023/05/13 08:45:52;;;;;;;;;58.00;44.33;;;;;-143.57;100.00;65101.44;5119014;27;45269;-43
2023/05/13 08:48:19;;;;;;;;;61.00;46.00;;;;;-143.57;100.00;65101.44;5117832;27;45551;-42
2023/05/13 08:50:45;;;;;;;;;58.67;45.00;;;;;-143.57;100.00;65101.44;5099683;27;45290;-45
2023/05/13 08:53:11;;;;;;;;;60.00;46.00;;;;;-143.57;100.00;65101.44;5118405;27;45599;-44
2023/05/13 08:55:40;;;;;;;;;64.67;48.33;;;;;-143.57;100.00;65101.44;5117285;27;45443;-43
2023/05/13 08:58:06;;;;;;;;;61.67;45.67;;;;;-143.57;100.00;65101.44;5118267;27;46413;-43
2023/05/13 09:00:33;;;;;;;;;54.67;43.33;;;;;-143.57;100.00;65101.44;5118169;27;45445;-45
2023/05/13 09:02:59;;;;;;;;;53.00;42.00;;;;;-143.57;100.00;65101.44;5117711;27;45388;-44
2023/05/13 09:05:24;;;;;;;;;65.00;49.00;;;;;-143.57;100.00;65101.44;5118264;27;45409;-43
2023/05/13 09:07:50;;;;;;;;;61.33;45.33;;;;;-143.57;100.00;65101.44;5117504;27;46011;-43
2023/05/13 09:10:16;;;;;;;;;50.67;41.67;;;;;-143.57;100.00;65101.44;5118416;27;45408;-44
2023/05/13 09:12:45;;;;;;;;;58.00;44.33;;;;;-143.57;100.00;65101.44;5118153;27;45333;-45
2023/05/13 09:15:16;;;;;;;;;53.67;42.33;;;;;-143.57;100.00;65101.44;5118313;27;45411;-44
2023/05/13 09:17:48;;;;;;;;;60.67;46.33;;;;;-143.57;100.00;65101.44;5117846;27;46401;-45
2023/05/13 09:20:15;;;;;;;;;60.00;46.67;;;;;-143.57;100.00;65101.44;5099259;27;45434;-50
2023/05/13 09:22:44;;;;;;;;;57.00;45.67;;;;;-143.57;100.00;65101.44;5118067;27;45333;-44
2023/05/13 09:25:13;;;;;;;;;55.00;42.33;;;;;-143.57;100.00;65101.44;5118113;27;45442;-45
2023/05/13 09:27:47;;;;;;;;;55.00;42.33;;;;;-143.57;100.00;65101.44;5117180;27;46882;-51
2023/05/13 09:30:12;;;;;;;;;53.33;42.33;;;;;-143.57;100.00;65101.44;5117929;27;45386;-44
2023/05/13 09:32:38;;;;;;;;;56.00;42.00;;;;;-143.57;100.00;65101.44;5117797;27;45481;-43
2023/05/13 09:35:09;;;;;;;;;65.00;45.00;;;;;-143.57;100.00;65101.44;5117258;27;45313;-43
2023/05/13 09:37:34;;;;;;;;;53.67;42.00;;;;;-143.57;100.00;65101.44;5117615;27;46089;-42
2023/05/13 09:40:00;;;;;;;;;53.67;40.00;;;;;-143.57;100.00;65101.44;5117251;27;45405;-44
2023/05/13 09:42:25;;;;;;;;;54.67;40.67;;;;;-143.57;100.00;65101.44;5118040;27;45336;-44
2023/05/13 09:44:51;;;;;;;;;56.67;43.33;;;;;-143.57;100.00;65101.44;5118040;27;45330;-43
2023/05/13 09:47:16;;;;;;;;;53.33;43.00;;;;;-143.57;100.00;65101.44;5116157;27;48133;-42
2023/05/13 09:49:44;;;;;;;;;51.33;41.00;;;;;-143.57;100.00;65101.44;5117535;27;50433;-47
2023/05/13 09:52:10;;;;;;;;;51.33;41.00;;;;;-143.57;100.00;65101.44;5118033;27;45613;-43
2023/05/13 09:54:37;;;;;;;;;50.00;40.00;;;;;-143.57;100.00;65101.44;5117396;27;45560;-43
2023/05/13 09:57:03;;;;;;;;;48.33;37.33;;;;;-143.57;100.00;65101.44;5117495;27;45385;-45
2023/05/13 09:59:32;;;;;;;;;52.00;40.67;;;;;-143.57;100.00;65101.44;5117820;27;45483;-44
2023/05/13 10:02:00;;;;;;;;;52.00;40.50;;;;;-143.57;100.00;65101.44;5117773;27;45219;-45
2023/05/13 10:04:26;;;;;;;;;49.50;38.50;;;;;-143.57;100.00;65101.44;5117738;27;45299;-44
2023/05/13 10:06:52;;;;;;;;;51.00;40.25;;;;;-143.57;100.00;65101.44;5118895;27;47296;-41
2023/05/13 10:09:21;;;;;;;;;43.50;37.25;;;;;-143.57;100.00;65101.44;5120755;27;45402;-41
2023/05/13 10:11:47;;;;;;;;;52.25;39.25;;;;;-143.57;100.00;65101.44;5121330;27;45273;-42
2023/05/13 10:14:13;;;;;;;;;48.50;38.00;;;;;-143.57;100.00;65101.44;5121293;27;45548;-41
2023/05/13 10:16:40;;;;;;;;;47.25;38.00;;;;;-143.57;100.00;65101.44;5121087;27;45392;-42
2023/05/13 10:19:06;;;;;;;;;44.00;35.40;;;;;-143.57;100.00;65101.44;5120846;27;45414;-41
2023/05/13 10:21:32;;;;;;;;;50.25;38.75;;;;;-143.57;100.00;65101.44;5120899;27;45363;-43
2023/05/13 10:23:57;;;;;;;;;42.00;35.40;;;;;-143.57;100.00;65101.44;5121332;27;45388;-45
2023/05/13 10:26:23;;;;;;;;;44.00;35.50;;;;;-143.57;100.00;65101.44;5120673;27;45420;-42
2023/05/13 10:28:49;;;;;;;;;39.20;34.00;;;;;-143.57;100.00;65101.44;5120842;27;45378;-42
2023/05/13 10:31:16;;;;;;;;;46.75;35.50;;;;;-143.57;100.00;65101.44;5120954;27;45440;-42
2023/05/13 10:33:42;;;;;;;;;39.60;34.20;;;;;-143.57;100.00;65101.44;5120807;27;45457;-43
2023/05/13 10:36:33;;;;;;;;;43.25;35.25;;;;;-143.57;100.00;65101.44;5120377;27;46264;-45
2023/05/13 10:39:15;;;;;;;;;46.40;36.20;;;;;-143.57;100.00;65101.44;5120566;27;45417;-41
2023/05/13 10:42:19;;;;;;;;;41.60;35.00;;;;;-143.57;100.00;65101.44;5120826;27;45247;-41
2023/05/13 10:44:44;;;;;;;;;43.80;35.60;;;;;-143.57;100.00;65101.44;5120657;27;45449;-43
2023/05/13 10:47:10;;;;;;;;;39.75;34.00;;;;;-143.57;100.00;65101.44;5120339;27;46068;-43
2023/05/13 10:49:36;;;;;;;;;42.75;35.00;;;;;-143.57;100.00;65101.44;5120438;27;45291;-43
2023/05/13 10:52:08;;;;;;;;;45.00;33.00;;;;;-143.57;100.00;65101.44;5119684;27;45343;-45